14:46
Airports
History
Links
Donate
Help keep this website running!
PayPal
Bitcoin
This page is community maintained. The information is intended for PC simulator navigation or reference.
Always use approved charts for navigation.
VT05
North Windham
North Windham (VT05)
Windham, Vermont, United States (5359)
4
Lat/Lng:43° 13' 17.27" N / 72° 42' 46.34" W
43.221464 / -72.712873
Elevation:1750'ft / 533mMSL
ID / ICAO:VT05
Runways:1
Longest:(09-27) 692.0m / 2,270ft Grass
Distance To
Airport ID:
Nearby VORs <50NM
Nearby NDBs
Nearby WeatherUpdated 08-22-17 13:54 GMT
Nearby weather at KVSF, Hartness State (springfield) located 13.0 nautical miles from VT05
Altimeter: 29.97
Visibility: 9.0 statute miles
Wind: 0 knots (000°)
Temp: 22°c 72°f
Humidity: 78.1%

METAR: KVSF 221354Z AUTO 00000KT 9SM SCT006 22/18 A2997 RMK AO2 SLP146 T02170183

(Powered by phpweather)
Runway 09 / 27
Dimensions:692 x 21.3m 2270' x 70'ft
Surface:Grass
Runway 09 [A]Runway 27 [B]
Heading:074°TH 254°TH
Lat:
Lng:
43° 13' 14.37"N
72° 43' 1.2"W
43° 13' 20.17"N
72° 42' 31.49"W
User Notes and Comments
Google Map
Nearby Airports
(R) Holloway 5.4 NM
VT13 N 357°
4 Red Fox 10.1 NM
VT02 WSW 239°
(R) Smith 10.4 NM
VT17 N 10°
(U) Hartness State (springfield) 13.0 NM
KVSF (WX) NE 49°
(R) Onyon 14.3 NM
VT43 SSE 167°
(R) Major W. Guth 15.8 NM
VT34 SE 135°
4 Santas 19.2 NM
VT06 SE 141°
VFR Chart
Flight Planning at SkyVector.com